Terminal Aerodrome Forecast
Issued by NWS Missoula, MT

Home | Current Version | Previous Version | Text Only | Print | Product List | Glossary On
Versions: 1 2 3 4 5 6 7 8 9 10 11 12 13 14 15 16 17 18
000
FTUS45 KMSO 251720
TAFMSO
TAF
KMSO 251720Z 2518/2618 VRB03KT P6SM BKN090
     FM261100 VRB03KT 5SM BR SCT008 OVC030
     FM261600 VRB03KT P6SM VCSH OVC050=

USA.gov is the U.S. government's official web portal to all federal, state and local government web resources and services.